Time;durP1;ratioP1;P1;durP2;ratioP2;P2;SDS_P1;SDS_P2;PMS_P1;PMS_P2;Temp;Humidity;BMP_temperature;BMP_pressure;BME280_temperature;BME280_humidity;BME280_pressure;Samples;Min_cycle;Max_cycle;Signal;HPM_P1;HPM_P2
2023/06/29 00:02:24;;;;;;;5.18;2.90;;;;;;;16.59;64.73;96416.81;5069281;28;20487;-73
2023/06/29 00:04:51;;;;;;;3.60;2.55;;;;;;;16.58;65.22;96413.25;5069275;28;20045;-73
2023/06/29 00:07:17;;;;;;;5.30;3.10;;;;;;;16.58;64.87;96412.47;5069431;28;20045;-73
2023/06/29 00:09:45;;;;;;;4.35;2.78;;;;;;;16.55;64.98;96415.91;5069766;28;20040;-72
2023/06/29 00:12:12;;;;;;;5.32;2.72;;;;;;;16.55;65.79;96419.50;5069258;28;20037;-73
2023/06/29 00:14:38;;;;;;;6.43;2.97;;;;;;;16.56;66.06;96417.53;5069325;28;20044;-73
2023/06/29 00:17:05;;;;;;;4.22;2.88;;;;;;;16.55;65.51;96421.41;5068838;28;20056;-73
2023/06/29 00:19:31;;;;;;;5.22;2.90;;;;;;;16.53;65.56;96418.22;5069441;28;20045;-73
2023/06/29 00:21:58;;;;;;;3.95;2.80;;;;;;;16.47;65.16;96411.41;5069347;28;20047;-73
2023/06/29 00:24:28;;;;;;;5.97;3.47;;;;;;;16.13;65.94;96417.25;5068973;28;20407;-72
2023/06/29 00:26:56;;;;;;;4.78;3.17;;;;;;;16.21;65.67;96420.16;5069494;28;20045;-72
2023/06/29 00:29:22;;;;;;;10.02;3.60;;;;;;;16.26;66.05;96415.22;5072514;28;20041;-73
2023/06/29 00:31:49;;;;;;;8.60;3.97;;;;;;;16.29;66.21;96414.50;5072784;28;20040;-72
2023/06/29 00:34:15;;;;;;;6.40;3.53;;;;;;;16.28;66.34;96406.59;5072630;28;20516;-73
2023/06/29 00:36:42;;;;;;;3.95;2.70;;;;;;;16.32;65.80;96402.78;5073233;28;20073;-72
2023/06/29 00:39:09;;;;;;;4.82;3.20;;;;;;;16.26;65.65;96404.22;5072810;28;20511;-73
2023/06/29 00:41:35;;;;;;;9.68;3.50;;;;;;;16.26;65.30;96404.22;5072663;28;20053;-73
2023/06/29 00:44:03;;;;;;;4.82;3.22;;;;;;;16.22;64.88;96408.03;5072291;28;20048;-73
2023/06/29 00:46:30;;;;;;;4.75;3.10;;;;;;;16.26;65.46;96411.66;5072602;28;20048;-73
2023/06/29 00:48:56;;;;;;;4.25;3.03;;;;;;;16.25;65.76;96401.84;5072862;28;20040;-72
2023/06/29 00:51:23;;;;;;;4.00;2.88;;;;;;;16.03;65.16;96408.72;5072128;28;20047;-73
2023/06/29 00:53:50;;;;;;;4.40;3.05;;;;;;;15.99;65.19;96402.31;5072883;28;20044;-73
2023/06/29 00:56:16;;;;;;;4.60;3.08;;;;;;;15.87;65.70;96398.50;5072074;28;20427;-73
2023/06/29 00:58:43;;;;;;;3.95;2.80;;;;;;;15.83;65.57;96408.56;5072117;28;20044;-73
2023/06/29 01:01:11;;;;;;;6.30;2.95;;;;;;;15.83;66.08;96402.28;5072149;28;20040;-73
2023/06/29 01:03:40;;;;;;;5.68;2.65;;;;;;;15.71;66.25;96403.13;5072712;28;20051;-72
2023/06/29 01:06:14;;;;;;;4.20;2.80;;;;;;;15.83;67.14;96400.34;5071669;28;20054;-72
2023/06/29 01:08:45;;;;;;;4.15;2.90;;;;;;;15.91;66.95;96402.13;5071751;28;20040;-72
2023/06/29 01:11:13;;;;;;;5.97;2.90;;;;;;;15.95;66.48;96398.69;5071940;28;20044;-73
2023/06/29 01:13:41;;;;;;;5.45;3.03;;;;;;;15.96;66.65;96392.81;5072024;28;20048;-72
2023/06/29 01:16:09;;;;;;;5.32;2.70;;;;;;;15.97;66.57;96397.16;5071378;28;20378;-73
2023/06/29 01:18:39;;;;;;;4.10;2.50;;;;;;;15.97;66.35;96393.63;5072296;28;20040;-73
2023/06/29 01:21:06;;;;;;;4.03;2.80;;;;;;;15.94;66.33;96397.88;5071775;28;20389;-72
2023/06/29 01:23:36;;;;;;;7.82;3.40;;;;;;;15.83;66.31;96391.31;5072317;28;20041;-72
2023/06/29 01:26:05;;;;;;;5.35;3.10;;;;;;;15.74;66.28;96388.72;5071626;28;20049;-73
2023/06/29 01:28:32;;;;;;;3.50;2.60;;;;;;;15.72;66.29;96384.72;5071918;28;20040;-72
2023/06/29 01:31:02;;;;;;;5.85;3.13;;;;;;;15.59;66.70;96381.19;5071678;28;20416;-73
2023/06/29 01:33:31;;;;;;;6.30;3.17;;;;;;;15.54;67.64;96384.19;5071437;28;20511;-73
2023/06/29 01:36:01;;;;;;;4.80;2.83;;;;;;;15.59;67.43;96383.94;5071862;28;20098;-73
2023/06/29 01:38:33;;;;;;;4.40;3.00;;;;;;;15.57;67.43;96378.81;5091632;28;20487;-73
2023/06/29 01:41:02;;;;;;;4.07;2.88;;;;;;;15.52;67.22;96387.28;5090980;28;20055;-72
2023/06/29 01:43:31;;;;;;;4.55;2.65;;;;;;;15.56;67.40;96381.91;5063840;28;20060;-73
2023/06/29 01:45:58;;;;;;;4.43;3.00;;;;;;;15.60;67.50;96371.81;5091704;28;20041;-73
2023/06/29 01:48:25;;;;;;;13.38;4.03;;;;;;;15.57;67.64;96372.53;5091671;28;20423;-72
2023/06/29 01:50:53;;;;;;;12.93;4.30;;;;;;;15.55;68.17;96372.84;5088726;28;20044;-72
2023/06/29 01:53:19;;;;;;;7.10;4.18;;;;;;;15.52;68.31;96370.03;5059910;28;20492;-73
2023/06/29 01:55:45;;;;;;;4.90;3.60;;;;;;;15.48;68.44;96371.88;5051842;28;20045;-72
2023/06/29 01:58:12;;;;;;;4.93;3.17;;;;;;;15.45;69.14;96375.28;5050856;28;20049;-72
2023/06/29 02:00:40;;;;;;;5.53;3.20;;;;;;;15.40;69.43;96374.41;5051255;28;20385;-72
2023/06/29 02:03:06;;;;;;;4.78;2.83;;;;;;;15.37;69.29;96366.88;5051019;28;20132;-73
2023/06/29 02:05:33;;;;;;;4.45;3.20;;;;;;;15.33;69.42;96368.72;5055148;28;20040;-72
2023/06/29 02:07:59;;;;;;;4.25;2.60;;;;;;;15.32;69.34;96372.59;5071461;28;20067;-72
2023/06/29 02:10:26;;;;;;;4.93;3.00;;;;;;;15.30;69.52;96371.38;5070637;28;20051;-73
2023/06/29 02:12:52;;;;;;;6.18;3.45;;;;;;;15.28;69.50;96366.22;5071172;28;20426;-72
2023/06/29 02:15:19;;;;;;;5.80;3.47;;;;;;;15.25;69.66;96366.91;5083738;28;20051;-72
2023/06/29 02:17:47;;;;;;;18.70;4.47;;;;;;;15.23;69.82;96368.41;5071201;28;20044;-72
2023/06/29 02:20:13;;;;;;;5.32;3.08;;;;;;;15.22;70.11;96369.56;5059938;28;20045;-72
2023/06/29 02:22:40;;;;;;;5.60;2.85;;;;;;;15.18;70.50;96366.69;5051260;28;20044;-72
2023/06/29 02:25:12;;;;;;;6.10;2.75;;;;;;;15.17;70.74;96365.09;5050853;28;20041;-73
2023/06/29 02:27:38;;;;;;;3.85;2.80;;;;;;;15.18;70.77;96361.22;5050784;28;20048;-72
2023/06/29 02:30:06;;;;;;;5.85;3.58;;;;;;;15.09;70.28;96353.13;5050393;28;20643;-73
2023/06/29 02:32:32;;;;;;;5.13;3.00;;;;;;;15.04;70.18;96355.31;5051186;28;20052;-72
2023/06/29 02:35:00;;;;;;;10.38;3.33;;;;;;;15.02;70.31;96357.59;5066574;28;20040;-72
2023/06/29 02:37:27;;;;;;;4.30;2.90;;;;;;;15.00;70.75;96359.91;5062327;28;20519;-72
2023/06/29 02:39:53;;;;;;;4.28;2.92;;;;;;;15.01;70.90;96356.00;5050708;28;20044;-73
2023/06/29 02:42:19;;;;;;;4.28;2.70;;;;;;;14.99;71.00;96352.81;5050186;28;20044;-72
2023/06/29 02:44:46;;;;;;;3.80;2.72;;;;;;;14.95;70.96;96355.44;5073285;28;20044;-72
2023/06/29 02:47:12;;;;;;;3.50;2.75;;;;;;;14.91;70.89;96353.75;5089126;28;20065;-73
2023/06/29 02:49:39;;;;;;;4.80;2.70;;;;;;;14.88;71.19;96356.03;5070150;28;20044;-72
2023/06/29 02:52:08;;;;;;;4.68;3.10;;;;;;;14.86;71.13;96349.28;5069668;28;20072;-72
2023/06/29 02:54:34;;;;;;;4.57;3.10;;;;;;;14.81;71.72;96358.53;5070721;28;20143;-72
2023/06/29 02:57:01;;;;;;;6.97;3.50;;;;;;;14.71;71.58;96364.50;5070625;28;20045;-72
2023/06/29 02:59:27;;;;;;;3.97;2.90;;;;;;;14.68;71.73;96353.44;5051636;28;20045;-73
2023/06/29 03:01:53;;;;;;;4.47;2.90;;;;;;;14.66;72.13;96356.50;5051456;28;20060;-72
2023/06/29 03:04:20;;;;;;;3.90;2.95;;;;;;;14.67;72.17;96363.59;5051117;28;20059;-73
2023/06/29 03:06:46;;;;;;;7.85;3.40;;;;;;;14.66;72.42;96351.03;5050890;28;20041;-72
2023/06/29 03:09:14;;;;;;;6.45;3.25;;;;;;;14.63;72.71;96354.47;5050764;28;20044;-73
2023/06/29 03:11:41;;;;;;;5.85;3.30;;;;;;;14.58;72.91;96355.50;5053788;28;20037;-73
2023/06/29 03:14:07;;;;;;;4.25;3.00;;;;;;;14.53;73.08;96352.19;5052851;28;20404;-73
2023/06/29 03:16:34;;;;;;;3.90;2.92;;;;;;;14.46;73.48;96355.47;5052971;28;20044;-73
2023/06/29 03:19:00;;;;;;;4.75;3.22;;;;;;;14.43;73.90;96352.63;5055003;28;20064;-73
2023/06/29 03:21:27;;;;;;;4.97;2.90;;;;;;;14.40;74.35;96350.56;5053782;28;20044;-72
2023/06/29 03:23:53;;;;;;;4.32;2.95;;;;;;;14.36;74.18;96348.50;5052785;28;20037;-73
2023/06/29 03:26:21;;;;;;;4.97;3.40;;;;;;;14.36;74.41;96354.00;5052830;28;20049;-73
2023/06/29 03:28:47;;;;;;;5.07;3.38;;;;;;;14.34;74.81;96350.78;5054454;28;20061;-73
2023/06/29 03:31:14;;;;;;;5.47;3.35;;;;;;;14.34;75.14;96355.47;5049063;28;20047;-72
2023/06/29 03:33:41;;;;;;;5.28;3.42;;;;;;;14.36;75.21;96347.72;5049833;28;20041;-72
2023/06/29 03:36:11;;;;;;;7.10;3.92;;;;;;;14.33;74.88;96357.41;5049769;28;20045;-73
2023/06/29 03:38:37;;;;;;;4.60;3.42;;;;;;;14.35;75.12;96354.31;5049820;28;20136;-72
2023/06/29 03:41:04;;;;;;;5.38;3.03;;;;;;;14.36;75.54;96348.50;5049511;28;20037;-73
2023/06/29 03:43:32;;;;;;;5.10;3.50;;;;;;;14.38;74.94;96350.09;5051039;28;20076;-72
2023/06/29 03:45:59;;;;;;;4.75;3.17;;;;;;;14.32;74.88;96358.56;5067238;28;20044;-72
2023/06/29 03:48:27;;;;;;;5.00;3.33;;;;;;;14.34;75.37;96353.53;5049456;28;20037;-72
2023/06/29 03:50:53;;;;;;;8.88;3.65;;;;;;;14.35;75.66;96355.13;5049462;28;20569;-73
2023/06/29 03:53:20;;;;;;;10.60;3.90;;;;;;;14.36;75.55;96347.72;5049334;28;20059;-72
2023/06/29 03:55:46;;;;;;;5.65;4.00;;;;;;;14.38;75.67;96350.09;5050051;28;20055;-72
2023/06/29 03:58:13;;;;;;;6.35;3.40;;;;;;;14.38;76.12;96350.09;5049111;28;20056;-73
2023/06/29 04:00:41;;;;;;;6.13;3.17;;;;;;;14.38;75.42;96347.38;5049519;28;20045;-72
2023/06/29 04:03:07;;;;;;;6.00;3.22;;;;;;;14.35;75.53;96346.94;5051189;28;20410;-73
2023/06/29 04:05:34;;;;;;;5.80;3.10;;;;;;;14.34;75.57;96353.53;5053779;28;20041;-72
2023/06/29 04:08:03;;;;;;;5.68;4.05;;;;;;;14.33;75.41;96360.16;5053686;28;20037;-72
2023/06/29 04:10:30;;;;;;;7.47;3.50;;;;;;;14.36;75.60;96345.78;5053027;28;20065;-72
2023/06/29 04:12:56;;;;;;;6.00;3.53;;;;;;;14.42;76.16;96357.31;5053620;28;20045;-72
2023/06/29 04:15:23;;;;;;;5.90;3.83;;;;;;;14.43;75.84;96353.41;5057010;28;20045;-73
2023/06/29 04:17:51;;;;;;;5.82;3.25;;;;;;;14.46;76.32;96354.66;5053651;28;20049;-72
2023/06/29 04:20:17;;;;;;;5.05;3.55;;;;;;;14.47;76.13;96359.03;5052736;28;20048;-73
2023/06/29 04:22:44;;;;;;;4.57;3.10;;;;;;;14.47;76.53;96353.53;5053441;28;20485;-72
2023/06/29 04:25:11;;;;;;;4.43;3.47;;;;;;;14.46;76.48;96357.41;5053114;28;20045;-73
2023/06/29 04:27:37;;;;;;;7.07;3.80;;;;;;;14.50;76.23;96358.34;5052896;28;20511;-72
2023/06/29 04:30:04;;;;;;;5.32;3.40;;;;;;;14.53;76.96;96353.00;5052464;28;20048;-73
2023/06/29 04:32:31;;;;;;;6.88;3.33;;;;;;;14.57;76.85;96358.59;5053382;28;20048;-72
2023/06/29 04:34:59;;;;;;;6.13;3.53;;;;;;;14.59;77.01;96356.28;5053273;28;20059;-72
2023/06/29 04:37:26;;;;;;;5.63;3.60;;;;;;;14.62;76.74;96355.63;5052914;28;20068;-73
2023/06/29 04:39:52;;;;;;;5.75;3.50;;;;;;;14.66;76.08;96351.03;5053059;28;20041;-73
2023/06/29 04:42:19;;;;;;;5.45;3.30;;;;;;;14.76;76.19;96350.56;5052280;28;20041;-73
2023/06/29 04:44:45;;;;;;;6.68;3.40;;;;;;;14.85;76.22;96347.69;5064292;28;20044;-72
2023/06/29 04:47:12;;;;;;;5.65;3.85;;;;;;;14.88;75.14;96345.06;5072654;28;20041;-73
2023/06/29 04:49:40;;;;;;;7.85;4.25;;;;;;;14.97;75.02;96344.13;5073112;28;20043;-73
2023/06/29 04:52:10;;;;;;;4.35;3.05;;;;;;;14.85;73.62;96337.53;5072159;28;20045;-73
2023/06/29 04:54:37;;;;;;;4.78;2.83;;;;;;;14.95;73.50;96340.94;5074489;28;20111;-73
2023/06/29 04:57:04;;;;;;;7.00;3.58;;;;;;;15.03;73.34;96342.72;5067908;28;20049;-73
2023/06/29 04:59:31;;;;;;;5.30;3.10;;;;;;;15.08;73.78;96340.53;5053011;28;20045;-73
2023/06/29 05:01:57;;;;;;;5.65;2.85;;;;;;;15.16;73.31;96338.03;5052781;28;20378;-72
2023/06/29 05:04:23;;;;;;;4.50;2.85;;;;;;;15.16;72.52;96336.09;5052128;28;20416;-72
2023/06/29 05:06:50;;;;;;;3.63;2.92;;;;;;;15.01;72.24;96337.59;5052528;28;20485;-73
2023/06/29 05:09:18;;;;;;;11.20;3.30;;;;;;;14.90;73.04;96335.69;5052033;28;20639;-73
2023/06/29 05:11:44;;;;;;;4.00;2.65;;;;;;;15.01;72.84;96328.59;5052455;28;20049;-73
2023/06/29 05:14:11;;;;;;;4.93;2.65;;;;;;;15.11;72.76;96330.84;5057825;28;20052;-72
2023/06/29 05:16:37;;;;;;;5.18;3.10;;;;;;;15.21;72.58;96327.59;5072253;28;20040;-73
2023/06/29 05:19:04;;;;;;;7.97;3.00;;;;;;;15.10;71.97;96326.50;5069049;28;20053;-73
2023/06/29 05:21:30;;;;;;;5.35;2.90;;;;;;;15.10;72.51;96326.50;5052084;28;20052;-73
2023/06/29 05:23:57;;;;;;;4.43;3.20;;;;;;;15.24;72.21;96321.41;5052241;28;20056;-72
2023/06/29 05:26:25;;;;;;;6.18;3.20;;;;;;;15.24;73.06;96320.63;5051592;28;20071;-73
2023/06/29 05:28:51;;;;;;;5.25;3.10;;;;;;;15.11;73.17;96328.09;5051829;28;20041;-72
2023/06/29 05:31:17;;;;;;;6.22;3.53;;;;;;;15.18;73.68;96322.81;5051255;28;20071;-73
2023/06/29 05:33:44;;;;;;;3.83;2.60;;;;;;;15.43;73.23;96322.72;5052226;28;20488;-72
2023/06/29 05:36:11;;;;;;;6.35;2.90;;;;;;;15.42;72.80;96321.13;5051822;28;20056;-74
2023/06/29 05:38:37;;;;;;;4.20;2.58;;;;;;;15.64;72.79;96331.56;5052040;28;20045;-74
2023/06/29 05:41:03;;;;;;;5.43;2.63;;;;;;;15.81;72.73;96322.19;5051310;28;20567;-75
2023/06/29 05:43:31;;;;;;;4.80;3.00;;;;;;;15.97;73.05;96331.25;5052452;28;20416;-74
2023/06/29 05:45:58;;;;;;;4.95;2.55;;;;;;;16.08;72.94;96331.56;5071580;28;20045;-74
2023/06/29 05:48:24;;;;;;;5.07;2.60;;;;;;;16.11;72.22;96336.31;5071428;28;20045;-74
2023/06/29 05:50:51;;;;;;;5.53;2.95;;;;;;;16.11;71.87;96336.31;5071670;28;20044;-74
2023/06/29 05:53:17;;;;;;;5.53;2.83;;;;;;;16.28;71.88;96335.94;5062307;28;20052;-74
2023/06/29 05:55:44;;;;;;;11.63;3.25;;;;;;;16.21;71.55;96335.78;5051687;28;20405;-74
2023/06/29 05:58:10;;;;;;;5.28;3.40;;;;;;;16.27;71.87;96339.84;5050482;28;20051;-74
2023/06/29 06:00:38;;;;;;;4.30;2.47;;;;;;;16.49;71.46;96329.38;5050312;28;20045;-74
2023/06/29 06:03:05;;;;;;;7.28;2.80;;;;;;;16.48;71.08;96328.59;5050032;28;20071;-74
2023/06/29 06:05:32;;;;;;;9.93;3.35;;;;;;;16.58;71.38;96330.00;5050305;28;20135;-73
2023/06/29 06:07:58;;;;;;;4.30;2.65;;;;;;;16.65;70.64;96332.91;5050979;28;20045;-74
2023/06/29 06:10:24;;;;;;;7.20;3.00;;;;;;;16.68;70.75;96332.19;5050065;28;20083;-73
2023/06/29 06:12:51;;;;;;;4.97;2.78;;;;;;;16.94;70.67;96332.44;5051078;28;20041;-73
2023/06/29 06:15:18;;;;;;;4.05;2.60;;;;;;;17.00;69.18;96326.66;5066166;28;20143;-74
2023/06/29 06:17:45;;;;;;;5.50;2.70;;;;;;;17.03;69.49;96325.94;5071253;28;20049;-74
2023/06/29 06:20:12;;;;;;;5.95;2.25;;;;;;;17.15;68.60;96329.34;5070548;28;20127;-74
2023/06/29 06:22:39;;;;;;;5.43;2.72;;;;;;;17.19;68.16;96329.41;5071383;28;20308;-74
2023/06/29 06:25:06;;;;;;;6.03;2.88;;;;;;;17.36;67.59;96317.97;5070098;28;20045;-73
2023/06/29 06:27:33;;;;;;;11.18;2.85;;;;;;;17.37;66.73;96322.31;5070975;28;20043;-74
2023/06/29 06:29:59;;;;;;;3.97;2.35;;;;;;;17.46;66.54;96325.66;5070839;28;20049;-73
2023/06/29 06:32:26;;;;;;;5.22;2.20;;;;;;;17.55;66.43;96324.66;5070640;28;20047;-73
2023/06/29 06:34:54;;;;;;;3.25;2.10;;;;;;;17.73;66.19;96328.53;5071174;28;20051;-73
2023/06/29 06:37:20;;;;;;;6.05;2.60;;;;;;;17.84;66.10;96326.78;5070490;28;20044;-74
2023/06/29 06:39:47;;;;;;;5.50;2.40;;;;;;;17.88;66.47;96319.38;5070618;28;20060;-73
2023/06/29 06:42:13;;;;;;;9.05;2.67;;;;;;;17.92;66.17;96317.50;5070024;28;20052;-74
2023/06/29 06:44:50;;;;;;;4.97;2.75;;;;;;;18.00;65.10;96313.69;5070569;28;20044;-74
2023/06/29 06:47:17;;;;;;;7.03;2.55;;;;;;;18.05;64.99;96315.34;5070071;28;20076;-74
2023/06/29 06:49:43;;;;;;;5.10;2.30;;;;;;;18.16;64.11;96313.56;5070684;28;20404;-74
2023/06/29 06:52:11;;;;;;;3.80;2.30;;;;;;;18.25;63.46;96311.38;5070026;28;20092;-74
2023/06/29 06:54:37;;;;;;;5.63;2.47;;;;;;;18.45;63.82;96316.81;5070426;28;20054;-73
2023/06/29 06:57:04;;;;;;;5.43;2.78;;;;;;;18.58;63.47;96303.59;5070107;28;20416;-74
2023/06/29 06:59:30;;;;;;;6.55;2.35;;;;;;;18.73;62.31;96311.75;5070429;28;20037;-75
2023/06/29 07:01:57;;;;;;;5.65;2.20;;;;;;;18.90;62.18;96310.44;5069969;28;20075;-73
2023/06/29 07:04:23;;;;;;;5.63;2.63;;;;;;;19.00;60.96;96309.78;5069920;28;20041;-74
2023/06/29 07:06:50;;;;;;;4.95;2.35;;;;;;;19.09;59.08;96306.72;5070516;28;20041;-74
2023/06/29 07:09:17;;;;;;;3.88;2.25;;;;;;;19.09;58.77;96312.25;5069407;28;20055;-74
2023/06/29 07:11:44;;;;;;;4.93;2.60;;;;;;;19.14;59.73;96308.38;5070174;28;20048;-73
2023/06/29 07:14:10;;;;;;;2.90;1.80;;;;;;;19.30;60.50;96314.47;5069627;28;20119;-74
2023/06/29 07:16:37;;;;;;;7.00;1.80;;;;;;;19.50;60.15;96310.41;5069899;28;20043;-74
2023/06/29 07:19:04;;;;;;;3.42;2.08;;;;;;;19.64;58.72;96309.00;5069749;28;20484;-74
2023/06/29 07:21:31;;;;;;;4.70;2.10;;;;;;;19.76;58.66;96303.22;5069973;28;20052;-74
2023/06/29 07:23:58;;;;;;;6.22;2.30;;;;;;;19.91;57.38;96302.19;5070117;28;20037;-73
2023/06/29 07:26:26;;;;;;;3.35;1.90;;;;;;;20.11;56.81;96300.00;5069836;28;20040;-74
2023/06/29 07:28:52;;;;;;;4.82;2.40;;;;;;;20.06;55.84;96303.91;5070091;28;20036;-74
2023/06/29 07:31:19;;;;;;;3.72;1.77;;;;;;;20.25;55.56;96305.63;5069263;28;20067;-75
2023/06/29 07:33:45;;;;;;;4.90;2.03;;;;;;;20.29;54.78;96306.47;5069936;28;20660;-74
2023/06/29 07:36:12;;;;;;;5.82;2.22;;;;;;;20.36;54.33;96304.94;5069465;28;20048;-74
2023/06/29 07:38:38;;;;;;;3.45;2.08;;;;;;;20.47;53.50;96292.03;5069213;28;20041;-74
2023/06/29 07:41:05;;;;;;;6.43;2.08;;;;;;;20.53;52.57;96294.06;5069325;28;20123;-73
2023/06/29 07:43:32;;;;;;;3.30;2.20;;;;;;;20.72;54.25;96294.97;5070464;28;20044;-74
2023/06/29 07:45:59;;;;;;;3.92;1.83;;;;;;;20.89;53.27;96286.00;5070111;28;20404;-73
2023/06/29 07:48:26;;;;;;;5.80;2.10;;;;;;;21.06;53.24;96296.38;5069917;28;20411;-74
2023/06/29 07:50:52;;;;;;;6.32;2.20;;;;;;;21.26;53.72;96293.31;5069544;28;20056;-74
2023/06/29 07:53:19;;;;;;;5.30;2.30;;;;;;;21.36;52.61;96295.34;5069259;28;20063;-74
2023/06/29 07:55:45;;;;;;;3.65;1.95;;;;;;;21.41;50.41;96291.41;5069751;28;20041;-74
2023/06/29 07:58:12;;;;;;;5.18;2.13;;;;;;;21.58;50.98;96285.94;5069294;28;20036;-74
2023/06/29 08:00:39;;;;;;;3.20;1.80;;;;;;;21.72;50.37;96284.41;5069350;28;20041;-74
2023/06/29 08:03:06;;;;;;;5.88;2.90;;;;;;;21.80;52.15;96294.28;5069268;28;20040;-74
2023/06/29 08:05:32;;;;;;;5.90;2.42;;;;;;;21.92;49.82;96302.22;5070134;28;20043;-74
2023/06/29 08:07:59;;;;;;;4.95;2.13;;;;;;;21.99;49.79;96296.72;5069901;28;20046;-74
2023/06/29 08:10:26;;;;;;;4.30;2.10;;;;;;;22.06;48.77;96298.69;5068817;28;20041;-74
2023/06/29 08:12:52;;;;;;;4.82;2.13;;;;;;;21.98;48.20;96297.09;5069797;28;20044;-74
2023/06/29 08:15:19;;;;;;;4.35;2.20;;;;;;;21.96;49.38;96294.72;5068738;28;20050;-74
2023/06/29 08:17:47;;;;;;;5.78;2.10;;;;;;;22.06;49.74;96285.63;5069487;28;20041;-74
2023/06/29 08:20:13;;;;;;;4.40;2.13;;;;;;;22.13;47.14;96282.91;5068917;28;20051;-74
2023/06/29 08:22:40;;;;;;;7.80;2.25;;;;;;;22.35;46.44;96272.59;5069911;28;20138;-74
2023/06/29 08:25:07;;;;;;;2.20;1.50;;;;;;;22.66;44.59;96276.53;5069367;28;20041;-74
2023/06/29 08:27:35;;;;;;;4.28;2.00;;;;;;;22.73;43.66;96277.72;5069708;28;20055;-74
2023/06/29 08:30:02;;;;;;;4.50;1.77;;;;;;;22.73;44.58;96274.94;5069185;28;20044;-75
2023/06/29 08:32:28;;;;;;;5.00;1.88;;;;;;;22.84;45.67;96270.16;5069493;28;20102;-73
2023/06/29 08:34:56;;;;;;;4.47;1.95;;;;;;;23.02;43.72;96273.72;5070067;28;20043;-74
2023/06/29 08:37:22;;;;;;;4.80;1.65;;;;;;;23.25;43.59;96270.47;5069927;28;20041;-74
2023/06/29 08:39:49;;;;;;;3.60;1.77;;;;;;;23.47;39.61;96276.72;5070692;28;20048;-75
2023/06/29 08:42:16;;;;;;;3.55;1.52;;;;;;;23.47;39.76;96273.94;5069946;28;20041;-74
2023/06/29 08:44:42;;;;;;;4.53;2.13;;;;;;;23.69;38.32;96272.66;5059744;28;20386;-74
2023/06/29 08:47:11;;;;;;;4.05;1.70;;;;;;;23.63;40.91;96268.72;5049666;28;20045;-74
2023/06/29 08:49:41;;;;;;;4.07;1.83;;;;;;;23.88;40.63;96259.47;5052984;28;20049;-74
2023/06/29 08:52:14;;;;;;;3.25;1.75;;;;;;;24.06;41.63;96254.53;5060198;28;20069;-74
2023/06/29 08:54:41;;;;;;;6.63;2.25;;;;;;;24.14;39.63;96261.66;5060542;28;20060;-74
2023/06/29 08:57:08;;;;;;;4.25;2.00;;;;;;;24.42;39.74;96265.44;5060016;28;20056;-74
2023/06/29 08:59:36;;;;;;;5.38;1.85;;;;;;;24.45;38.57;96259.06;5060822;28;20041;-75
2023/06/29 09:02:04;;;;;;;6.20;2.08;;;;;;;24.36;37.89;96255.94;5058737;28;20135;-75
2023/06/29 09:04:31;;;;;;;4.85;2.05;;;;;;;24.25;36.36;96258.78;5060154;28;20496;-75
2023/06/29 09:06:57;;;;;;;3.65;1.83;;;;;;;24.49;36.77;96254.25;5059502;28;20044;-74
2023/06/29 09:09:26;;;;;;;3.38;1.48;;;;;;;24.73;37.05;96253.22;5056214;28;20049;-74
2023/06/29 09:11:52;;;;;;;2.35;1.60;;;;;;;24.84;35.09;96252.31;5052637;28;20513;-75
2023/06/29 09:14:19;;;;;;;5.45;1.95;;;;;;;24.94;36.27;96248.63;5059415;28;20507;-74
2023/06/29 09:16:53;;;;;;;3.90;1.65;;;;;;;25.08;35.66;96245.72;5074139;28;20037;-74
2023/06/29 09:19:20;;;;;;;3.38;1.67;;;;;;;24.92;32.67;96242.69;5076741;28;20071;-75
2023/06/29 09:21:48;;;;;;;4.45;1.70;;;;;;;25.10;33.54;96236.94;5076234;28;20480;-74
2023/06/29 09:24:16;;;;;;;3.28;1.77;;;;;;;24.89;35.30;96243.50;5072608;28;20045;-74
2023/06/29 09:26:44;;;;;;;3.08;1.60;;;;;;;24.89;34.28;96243.50;5072951;28;20048;-74
2023/06/29 09:29:10;;;;;;;4.75;1.50;;;;;;;25.06;35.34;96230.56;5075578;28;20036;-75
2023/06/29 09:31:37;;;;;;;2.72;1.75;;;;;;;25.18;34.83;96232.88;5075806;28;20676;-74
2023/06/29 09:34:18;;;;;;;3.92;1.70;;;;;;;25.14;34.45;96229.31;5077361;28;20539;-75
2023/06/29 09:36:45;;;;;;;3.42;1.58;;;;;;;25.20;35.68;96224.88;5076120;28;20052;-74
2023/06/29 09:39:12;;;;;;;4.50;1.70;;;;;;;25.20;34.13;96214.50;5077205;28;20777;-75
2023/06/29 09:41:48;;;;;;;2.90;1.80;;;;;;;25.31;34.33;96208.00;5078348;28;20040;-74
2023/06/29 09:44:16;;;;;;;3.58;1.55;;;;;;;25.33;34.85;96216.75;5076650;28;20053;-76
2023/06/29 09:46:43;;;;;;;4.70;2.17;;;;;;;25.46;34.26;96212.19;5077020;28;20040;-74
2023/06/29 09:49:11;;;;;;;7.78;1.90;;;;;;;25.65;34.35;96216.31;5076738;28;20041;-75
2023/06/29 09:51:38;;;;;;;2.20;1.30;;;;;;;25.66;32.59;96213.09;5077024;28;20037;-75
2023/06/29 09:54:05;;;;;;;6.10;1.40;;;;;;;25.73;32.42;96213.00;5077148;28;20044;-75
2023/06/29 09:56:33;;;;;;;4.75;1.50;;;;;;;25.82;32.47;96209.72;5075068;28;20101;-75
2023/06/29 09:59:02;;;;;;;4.00;1.67;;;;;;;25.82;33.65;96208.94;5072124;28;20412;-74
2023/06/29 10:01:29;;;;;;;3.53;1.55;;;;;;;25.67;31.98;96209.09;5070731;28;20503;-74
2023/06/29 10:03:55;;;;;;;2.85;1.52;;;;;;;25.61;32.59;96210.78;5071961;28;20044;-74
2023/06/29 10:06:26;;;;;;;4.05;1.60;;;;;;;25.61;31.80;96196.84;5071813;28;20044;-75
2023/06/29 10:08:58;;;;;;;3.13;1.67;;;;;;;25.71;32.96;96198.69;5071551;28;20045;-74
2023/06/29 10:11:28;;;;;;;3.33;1.60;;;;;;;25.80;32.02;96205.78;5070695;28;20097;-74
2023/06/29 10:14:00;;;;;;;4.75;1.63;;;;;;;25.96;31.91;96195.56;5071279;28;20047;-74
2023/06/29 10:16:29;;;;;;;3.33;1.85;;;;;;;25.84;31.61;96195.34;5070354;28;20041;-74
2023/06/29 10:19:06;;;;;;;4.35;1.80;;;;;;;26.04;30.88;96187.84;5071261;28;20645;-74
2023/06/29 10:21:33;;;;;;;3.33;1.60;;;;;;;26.05;31.53;96189.47;5070859;28;20672;-74
2023/06/29 10:24:01;;;;;;;3.88;1.55;;;;;;;26.21;32.80;96184.00;5071209;28;20040;-74
2023/06/29 10:26:28;;;;;;;2.88;1.50;;;;;;;26.04;30.57;96199.00;5091016;28;20064;-75
2023/06/29 10:28:54;;;;;;;6.63;1.90;;;;;;;25.96;31.09;96187.19;5091135;28;20054;-74
2023/06/29 10:31:33;;;;;;;3.42;1.50;;;;;;;26.11;31.86;96184.97;5090332;28;20051;-74
2023/06/29 10:33:59;;;;;;;3.65;1.30;;;;;;;26.21;32.34;96181.22;5091153;28;20040;-74
2023/06/29 10:36:26;;;;;;;3.58;1.60;;;;;;;26.14;32.09;96175.72;5090596;28;20047;-73
2023/06/29 10:38:52;;;;;;;3.58;1.70;;;;;;;26.01;31.26;96177.56;5090942;28;20047;-73
2023/06/29 10:41:27;;;;;;;2.75;1.50;;;;;;;26.22;31.37;96171.63;5090315;28;20434;-74
2023/06/29 10:43:59;;;;;;;4.53;1.67;;;;;;;26.25;31.76;96165.16;5090857;28;20531;-73
2023/06/29 10:46:46;;;;;;;4.35;2.15;;;;;;;26.07;29.36;96172.28;5088956;28;20043;-73
2023/06/29 10:49:22;;;;;;;2.88;1.35;;;;;;;26.20;30.81;96167.66;5090327;28;20532;-73
2023/06/29 10:51:50;;;;;;;3.10;1.60;;;;;;;26.02;30.21;96159.59;5090550;28;20071;-73
2023/06/29 10:54:17;;;;;;;2.95;1.50;;;;;;;26.02;31.46;96173.53;5090227;28;20044;-74
2023/06/29 10:56:56;;;;;;;4.68;1.60;;;;;;;26.16;33.43;96167.75;5090870;28;20411;-74
2023/06/29 10:59:23;;;;;;;4.85;1.50;;;;;;;26.25;31.85;96165.16;5090412;28;20040;-74
2023/06/29 11:01:52;;;;;;;2.08;1.50;;;;;;;26.44;32.13;96157.31;5090306;28;20048;-74
2023/06/29 11:04:19;;;;;;;3.20;1.50;;;;;;;26.41;31.74;96166.50;5090134;28;20135;-74
2023/06/29 11:06:45;;;;;;;4.32;1.83;;;;;;;26.43;30.85;96153.72;5090628;28;20040;-73
2023/06/29 11:09:12;;;;;;;2.72;1.80;;;;;;;26.27;32.25;96156.38;5089742;28;20483;-73
2023/06/29 11:11:39;;;;;;;2.75;1.50;;;;;;;26.27;32.84;96148.81;5090295;28;20066;-73
2023/06/29 11:14:05;;;;;;;3.45;1.83;;;;;;;26.38;32.50;96150.63;5084241;28;20056;-74
2023/06/29 11:16:33;;;;;;;2.15;1.40;;;;;;;26.47;32.46;96153.69;5070016;28;20041;-73
2023/06/29 11:19:03;;;;;;;3.80;1.55;;;;;;;26.62;32.08;96148.59;5068821;28;20124;-74
2023/06/29 11:21:30;;;;;;;8.27;2.00;;;;;;;26.54;31.95;96150.72;5061628;28;20044;-74
2023/06/29 11:23:56;;;;;;;6.50;2.20;;;;;;;26.36;31.50;96147.44;5069540;28;20036;-73
2023/06/29 11:26:23;;;;;;;5.10;1.52;;;;;;;26.32;32.60;96141.16;5069672;28;20504;-74
2023/06/29 11:28:50;;;;;;;3.80;1.60;;;;;;;26.57;31.91;96141.47;5070051;28;20639;-74
2023/06/29 11:31:17;;;;;;;10.10;1.90;;;;;;;26.64;30.62;96146.16;5069232;28;20049;-74
2023/06/29 11:33:50;;;;;;;3.55;1.70;;;;;;;26.54;31.77;96131.19;5069956;28;20503;-73
2023/06/29 11:36:28;;;;;;;4.45;1.58;;;;;;;26.60;32.30;96123.88;5069587;28;20051;-74